sensor_id;sensor_type;location;lat;lon;timestamp;P1;durP1;ratioP1;P2;durP2;ratioP2
65477;SDS011;53678;39.642;22.430;2023-02-22T00:00:17;89.13;;;45.10;;
65477;SDS011;53678;39.642;22.430;2023-02-22T00:02:51;86.30;;;46.83;;
65477;SDS011;53678;39.642;22.430;2023-02-22T00:05:27;88.60;;;43.25;;
65477;SDS011;53678;39.642;22.430;2023-02-22T00:07:53;81.53;;;44.15;;
65477;SDS011;53678;39.642;22.430;2023-02-22T00:10:23;82.20;;;46.00;;
65477;SDS011;53678;39.642;22.430;2023-02-22T00:12:50;92.18;;;44.65;;
65477;SDS011;53678;39.642;22.430;2023-02-22T00:15:20;89.43;;;44.35;;
65477;SDS011;53678;39.642;22.430;2023-02-22T00:17:47;99.10;;;45.40;;
65477;SDS011;53678;39.642;22.430;2023-02-22T00:20:14;94.55;;;46.55;;
65477;SDS011;53678;39.642;22.430;2023-02-22T00:22:45;86.97;;;42.83;;
65477;SDS011;53678;39.642;22.430;2023-02-22T00:25:14;83.88;;;42.72;;
65477;SDS011;53678;39.642;22.430;2023-02-22T00:27:42;78.07;;;42.28;;
65477;SDS011;53678;39.642;22.430;2023-02-22T00:30:12;71.32;;;40.08;;
65477;SDS011;53678;39.642;22.430;2023-02-22T00:32:46;70.47;;;40.03;;
65477;SDS011;53678;39.642;22.430;2023-02-22T00:35:14;68.78;;;39.88;;
65477;SDS011;53678;39.642;22.430;2023-02-22T00:37:41;73.65;;;38.72;;
65477;SDS011;53678;39.642;22.430;2023-02-22T00:40:11;77.93;;;39.63;;
65477;SDS011;53678;39.642;22.430;2023-02-22T00:42:39;78.38;;;33.60;;
65477;SDS011;53678;39.642;22.430;2023-02-22T00:45:05;53.70;;;30.20;;
65477;SDS011;53678;39.642;22.430;2023-02-22T00:47:33;58.03;;;30.55;;
65477;SDS011;53678;39.642;22.430;2023-02-22T00:49:59;54.15;;;30.25;;
65477;SDS011;53678;39.642;22.430;2023-02-22T00:52:26;48.85;;;29.80;;
65477;SDS011;53678;39.642;22.430;2023-02-22T00:54:53;43.80;;;27.05;;
65477;SDS011;53678;39.642;22.430;2023-02-22T00:57:21;40.78;;;24.75;;
65477;SDS011;53678;39.642;22.430;2023-02-22T00:59:47;42.40;;;25.27;;
65477;SDS011;53678;39.642;22.430;2023-02-22T01:02:12;47.60;;;26.88;;
65477;SDS011;53678;39.642;22.430;2023-02-22T01:04:38;49.15;;;27.77;;
65477;SDS011;53678;39.642;22.430;2023-02-22T01:07:04;54.47;;;31.08;;
65477;SDS011;53678;39.642;22.430;2023-02-22T01:09:30;52.63;;;30.08;;
65477;SDS011;53678;39.642;22.430;2023-02-22T01:11:57;56.00;;;33.25;;
65477;SDS011;53678;39.642;22.430;2023-02-22T01:14:23;53.28;;;30.38;;
65477;SDS011;53678;39.642;22.430;2023-02-22T01:16:53;52.10;;;29.98;;
65477;SDS011;53678;39.642;22.430;2023-02-22T01:19:21;49.92;;;29.85;;
65477;SDS011;53678;39.642;22.430;2023-02-22T01:21:47;46.90;;;29.38;;
65477;SDS011;53678;39.642;22.430;2023-02-22T01:24:15;52.45;;;30.27;;
65477;SDS011;53678;39.642;22.430;2023-02-22T01:26:42;48.13;;;27.75;;
65477;SDS011;53678;39.642;22.430;2023-02-22T01:29:12;41.58;;;26.05;;
65477;SDS011;53678;39.642;22.430;2023-02-22T01:31:42;46.13;;;26.65;;
65477;SDS011;53678;39.642;22.430;2023-02-22T01:34:15;46.30;;;28.70;;
65477;SDS011;53678;39.642;22.430;2023-02-22T01:36:41;41.95;;;25.92;;
65477;SDS011;53678;39.642;22.430;2023-02-22T01:39:07;47.55;;;26.00;;
65477;SDS011;53678;39.642;22.430;2023-02-22T01:41:34;39.95;;;24.33;;
65477;SDS011;53678;39.642;22.430;2023-02-22T01:44:23;41.00;;;25.80;;
65477;SDS011;53678;39.642;22.430;2023-02-22T01:46:54;38.22;;;22.73;;
65477;SDS011;53678;39.642;22.430;2023-02-22T01:49:20;38.72;;;23.85;;
65477;SDS011;53678;39.642;22.430;2023-02-22T01:51:48;41.47;;;23.98;;
65477;SDS011;53678;39.642;22.430;2023-02-22T01:54:20;46.47;;;26.27;;
65477;SDS011;53678;39.642;22.430;2023-02-22T01:56:56;44.30;;;26.65;;
65477;SDS011;53678;39.642;22.430;2023-02-22T01:59:26;43.10;;;26.50;;
65477;SDS011;53678;39.642;22.430;2023-02-22T02:01:57;41.88;;;24.55;;
65477;SDS011;53678;39.642;22.430;2023-02-22T02:04:24;35.40;;;22.73;;
65477;SDS011;53678;39.642;22.430;2023-02-22T02:06:53;39.17;;;25.00;;
65477;SDS011;53678;39.642;22.430;2023-02-22T02:09:39;35.42;;;22.40;;
65477;SDS011;53678;39.642;22.430;2023-02-22T02:12:08;36.95;;;23.15;;
65477;SDS011;53678;39.642;22.430;2023-02-22T02:14:36;38.40;;;21.48;;
65477;SDS011;53678;39.642;22.430;2023-02-22T02:17:09;37.10;;;22.63;;
65477;SDS011;53678;39.642;22.430;2023-02-22T02:36:10;37.08;;;23.92;;
65477;SDS011;53678;39.642;22.430;2023-02-22T02:39:03;45.38;;;26.23;;
65477;SDS011;53678;39.642;22.430;2023-02-22T02:41:55;43.97;;;25.98;;
65477;SDS011;53678;39.642;22.430;2023-02-22T02:49:40;50.50;;;29.52;;
65477;SDS011;53678;39.642;22.430;2023-02-22T02:52:10;53.15;;;29.67;;
65477;SDS011;53678;39.642;22.430;2023-02-22T02:54:37;49.13;;;29.67;;
65477;SDS011;53678;39.642;22.430;2023-02-22T02:57:06;51.67;;;30.83;;
65477;SDS011;53678;39.642;22.430;2023-02-22T02:59:34;53.05;;;30.48;;
65477;SDS011;53678;39.642;22.430;2023-02-22T03:04:55;49.78;;;30.10;;
65477;SDS011;53678;39.642;22.430;2023-02-22T03:07:43;50.30;;;27.98;;
65477;SDS011;53678;39.642;22.430;2023-02-22T03:10:19;44.78;;;26.73;;
65477;SDS011;53678;39.642;22.430;2023-02-22T03:13:29;46.45;;;27.05;;
65477;SDS011;53678;39.642;22.430;2023-02-22T03:16:14;47.30;;;26.77;;
65477;SDS011;53678;39.642;22.430;2023-02-22T03:18:48;51.00;;;29.15;;
65477;SDS011;53678;39.642;22.430;2023-02-22T03:26:56;40.00;;;22.83;;
65477;SDS011;53678;39.642;22.430;2023-02-22T03:29:37;49.65;;;24.73;;
65477;SDS011;53678;39.642;22.430;2023-02-22T03:32:08;53.38;;;28.10;;
65477;SDS011;53678;39.642;22.430;2023-02-22T03:34:40;54.45;;;30.55;;
65477;SDS011;53678;39.642;22.430;2023-02-22T03:37:16;57.25;;;27.30;;
65477;SDS011;53678;39.642;22.430;2023-02-22T03:39:44;44.10;;;24.50;;
65477;SDS011;53678;39.642;22.430;2023-02-22T03:42:31;40.90;;;24.13;;
65477;SDS011;53678;39.642;22.430;2023-02-22T03:45:03;49.47;;;24.65;;
65477;SDS011;53678;39.642;22.430;2023-02-22T03:47:38;48.75;;;22.77;;
65477;SDS011;53678;39.642;22.430;2023-02-22T03:50:12;63.53;;;28.40;;
65477;SDS011;53678;39.642;22.430;2023-02-22T03:52:42;54.80;;;27.77;;
65477;SDS011;53678;39.642;22.430;2023-02-22T03:55:14;51.47;;;27.17;;
65477;SDS011;53678;39.642;22.430;2023-02-22T03:57:44;59.05;;;28.80;;
65477;SDS011;53678;39.642;22.430;2023-02-22T04:00:14;65.63;;;32.70;;
65477;SDS011;53678;39.642;22.430;2023-02-22T04:02:44;55.85;;;28.98;;
65477;SDS011;53678;39.642;22.430;2023-02-22T04:05:16;67.45;;;27.38;;
65477;SDS011;53678;39.642;22.430;2023-02-22T04:07:42;57.65;;;28.70;;
65477;SDS011;53678;39.642;22.430;2023-02-22T04:10:10;44.17;;;26.75;;
65477;SDS011;53678;39.642;22.430;2023-02-22T04:12:38;41.80;;;25.70;;
65477;SDS011;53678;39.642;22.430;2023-02-22T04:15:06;44.47;;;27.45;;
65477;SDS011;53678;39.642;22.430;2023-02-22T04:17:33;42.53;;;27.80;;
65477;SDS011;53678;39.642;22.430;2023-02-22T04:20:00;47.85;;;27.65;;
65477;SDS011;53678;39.642;22.430;2023-02-22T04:22:33;52.08;;;28.27;;
65477;SDS011;53678;39.642;22.430;2023-02-22T04:24:59;59.60;;;29.98;;
65477;SDS011;53678;39.642;22.430;2023-02-22T04:27:26;53.33;;;28.95;;
65477;SDS011;53678;39.642;22.430;2023-02-22T04:29:54;50.47;;;26.77;;
65477;SDS011;53678;39.642;22.430;2023-02-22T04:32:20;41.75;;;24.65;;
65477;SDS011;53678;39.642;22.430;2023-02-22T04:34:46;50.13;;;25.83;;
65477;SDS011;53678;39.642;22.430;2023-02-22T04:37:12;40.92;;;25.13;;
65477;SDS011;53678;39.642;22.430;2023-02-22T04:39:38;42.92;;;26.35;;
65477;SDS011;53678;39.642;22.430;2023-02-22T04:42:04;42.13;;;24.48;;
65477;SDS011;53678;39.642;22.430;2023-02-22T04:44:31;44.97;;;25.73;;
65477;SDS011;53678;39.642;22.430;2023-02-22T04:46:57;44.30;;;26.55;;
65477;SDS011;53678;39.642;22.430;2023-02-22T04:49:23;51.92;;;25.88;;
65477;SDS011;53678;39.642;22.430;2023-02-22T04:51:51;48.33;;;28.38;;
65477;SDS011;53678;39.642;22.430;2023-02-22T04:54:21;48.03;;;29.92;;
65477;SDS011;53678;39.642;22.430;2023-02-22T04:56:47;49.58;;;28.60;;
65477;SDS011;53678;39.642;22.430;2023-02-22T04:59:13;69.13;;;29.92;;
65477;SDS011;53678;39.642;22.430;2023-02-22T05:01:42;58.60;;;27.73;;
65477;SDS011;53678;39.642;22.430;2023-02-22T05:04:08;51.63;;;30.48;;
65477;SDS011;53678;39.642;22.430;2023-02-22T05:06:34;58.67;;;28.77;;
65477;SDS011;53678;39.642;22.430;2023-02-22T05:09:00;54.72;;;28.23;;
65477;SDS011;53678;39.642;22.430;2023-02-22T05:11:26;55.45;;;29.88;;
65477;SDS011;53678;39.642;22.430;2023-02-22T05:13:53;55.85;;;29.38;;
65477;SDS011;53678;39.642;22.430;2023-02-22T05:16:20;68.72;;;31.83;;
65477;SDS011;53678;39.642;22.430;2023-02-22T05:18:47;49.45;;;29.00;;
65477;SDS011;53678;39.642;22.430;2023-02-22T05:21:13;45.13;;;30.00;;
65477;SDS011;53678;39.642;22.430;2023-02-22T05:23:38;55.00;;;28.50;;
65477;SDS011;53678;39.642;22.430;2023-02-22T05:26:07;50.45;;;26.40;;
65477;SDS011;53678;39.642;22.430;2023-02-22T05:28:33;41.13;;;24.85;;
65477;SDS011;53678;39.642;22.430;2023-02-22T05:31:00;46.45;;;26.38;;
65477;SDS011;53678;39.642;22.430;2023-02-22T05:33:27;59.45;;;27.98;;
65477;SDS011;53678;39.642;22.430;2023-02-22T05:35:52;60.63;;;27.60;;
65477;SDS011;53678;39.642;22.430;2023-02-22T05:38:20;53.20;;;26.15;;
65477;SDS011;53678;39.642;22.430;2023-02-22T05:40:47;59.05;;;28.65;;
65477;SDS011;53678;39.642;22.430;2023-02-22T05:43:13;48.25;;;26.63;;
65477;SDS011;53678;39.642;22.430;2023-02-22T05:45:40;65.57;;;30.30;;
65477;SDS011;53678;39.642;22.430;2023-02-22T05:48:07;59.42;;;28.38;;
65477;SDS011;53678;39.642;22.430;2023-02-22T05:50:33;60.17;;;28.45;;
65477;SDS011;53678;39.642;22.430;2023-02-22T05:52:59;55.17;;;28.80;;
65477;SDS011;53678;39.642;22.430;2023-02-22T05:55:25;51.45;;;26.30;;
65477;SDS011;53678;39.642;22.430;2023-02-22T05:57:51;42.53;;;25.33;;
65477;SDS011;53678;39.642;22.430;2023-02-22T06:02:52;44.25;;;21.13;;
65477;SDS011;53678;39.642;22.430;2023-02-22T06:05:29;34.42;;;20.23;;
65477;SDS011;53678;39.642;22.430;2023-02-22T06:07:55;36.97;;;18.88;;
65477;SDS011;53678;39.642;22.430;2023-02-22T06:10:22;32.67;;;19.33;;
65477;SDS011;53678;39.642;22.430;2023-02-22T06:12:48;39.95;;;18.00;;
65477;SDS011;53678;39.642;22.430;2023-02-22T06:15:17;32.65;;;17.60;;
65477;SDS011;53678;39.642;22.430;2023-02-22T06:17:44;29.17;;;17.60;;
65477;SDS011;53678;39.642;22.430;2023-02-22T06:20:11;35.63;;;17.85;;
65477;SDS011;53678;39.642;22.430;2023-02-22T06:22:39;28.67;;;17.45;;
65477;SDS011;53678;39.642;22.430;2023-02-22T06:25:06;25.02;;;16.05;;
65477;SDS011;53678;39.642;22.430;2023-02-22T06:27:33;28.73;;;15.82;;
65477;SDS011;53678;39.642;22.430;2023-02-22T06:29:59;28.10;;;16.17;;
65477;SDS011;53678;39.642;22.430;2023-02-22T06:32:26;24.42;;;15.98;;
65477;SDS011;53678;39.642;22.430;2023-02-22T06:34:52;28.45;;;15.50;;
65477;SDS011;53678;39.642;22.430;2023-02-22T06:37:18;34.83;;;17.48;;
65477;SDS011;53678;39.642;22.430;2023-02-22T06:39:44;35.60;;;19.58;;
65477;SDS011;53678;39.642;22.430;2023-02-22T06:42:10;30.55;;;18.25;;
65477;SDS011;53678;39.642;22.430;2023-02-22T06:44:36;30.88;;;18.08;;
65477;SDS011;53678;39.642;22.430;2023-02-22T06:47:02;31.83;;;19.23;;
65477;SDS011;53678;39.642;22.430;2023-02-22T06:49:41;28.15;;;18.52;;
65477;SDS011;53678;39.642;22.430;2023-02-22T06:52:08;32.40;;;18.92;;
65477;SDS011;53678;39.642;22.430;2023-02-22T06:54:34;26.48;;;17.48;;
65477;SDS011;53678;39.642;22.430;2023-02-22T06:57:01;34.75;;;18.27;;
65477;SDS011;53678;39.642;22.430;2023-02-22T06:59:27;29.65;;;17.67;;
65477;SDS011;53678;39.642;22.430;2023-02-22T07:01:54;27.90;;;17.00;;
65477;SDS011;53678;39.642;22.430;2023-02-22T07:04:22;26.98;;;18.08;;
65477;SDS011;53678;39.642;22.430;2023-02-22T07:06:49;28.23;;;17.98;;
65477;SDS011;53678;39.642;22.430;2023-02-22T07:09:16;30.92;;;19.85;;
65477;SDS011;53678;39.642;22.430;2023-02-22T07:11:42;33.85;;;19.42;;
65477;SDS011;53678;39.642;22.430;2023-02-22T07:14:09;30.17;;;19.13;;
65477;SDS011;53678;39.642;22.430;2023-02-22T07:16:35;28.20;;;17.33;;
65477;SDS011;53678;39.642;22.430;2023-02-22T07:19:01;29.38;;;19.15;;
65477;SDS011;53678;39.642;22.430;2023-02-22T07:21:27;33.80;;;20.02;;
65477;SDS011;53678;39.642;22.430;2023-02-22T07:23:54;29.77;;;18.08;;
65477;SDS011;53678;39.642;22.430;2023-02-22T07:26:23;30.08;;;20.23;;
65477;SDS011;53678;39.642;22.430;2023-02-22T07:28:49;33.25;;;18.95;;
65477;SDS011;53678;39.642;22.430;2023-02-22T07:31:16;32.03;;;18.33;;
65477;SDS011;53678;39.642;22.430;2023-02-22T07:33:44;32.17;;;18.85;;
65477;SDS011;53678;39.642;22.430;2023-02-22T07:36:11;28.40;;;19.23;;
65477;SDS011;53678;39.642;22.430;2023-02-22T07:38:44;29.05;;;18.27;;
65477;SDS011;53678;39.642;22.430;2023-02-22T07:41:10;28.20;;;17.55;;
65477;SDS011;53678;39.642;22.430;2023-02-22T07:43:38;29.80;;;18.45;;
65477;SDS011;53678;39.642;22.430;2023-02-22T07:46:04;28.25;;;17.27;;
65477;SDS011;53678;39.642;22.430;2023-02-22T07:48:31;23.80;;;17.17;;
65477;SDS011;53678;39.642;22.430;2023-02-22T07:50:57;23.42;;;17.20;;
65477;SDS011;53678;39.642;22.430;2023-02-22T07:53:24;30.45;;;17.80;;
65477;SDS011;53678;39.642;22.430;2023-02-22T07:55:57;28.27;;;18.00;;
65477;SDS011;53678;39.642;22.430;2023-02-22T07:58:25;26.30;;;16.67;;
65477;SDS011;53678;39.642;22.430;2023-02-22T08:00:52;29.27;;;17.25;;
65477;SDS011;53678;39.642;22.430;2023-02-22T08:03:22;35.75;;;17.65;;
65477;SDS011;53678;39.642;22.430;2023-02-22T08:05:50;26.77;;;17.67;;
65477;SDS011;53678;39.642;22.430;2023-02-22T08:08:18;31.88;;;19.25;;
65477;SDS011;53678;39.642;22.430;2023-02-22T08:10:46;30.48;;;18.40;;
65477;SDS011;53678;39.642;22.430;2023-02-22T08:13:12;24.63;;;17.75;;
65477;SDS011;53678;39.642;22.430;2023-02-22T08:15:40;24.58;;;15.75;;
65477;SDS011;53678;39.642;22.430;2023-02-22T08:18:09;31.92;;;20.27;;
65477;SDS011;53678;39.642;22.430;2023-02-22T08:20:37;28.48;;;19.45;;
65477;SDS011;53678;39.642;22.430;2023-02-22T08:23:05;32.20;;;19.90;;
65477;SDS011;53678;39.642;22.430;2023-02-22T08:25:31;35.50;;;19.02;;
65477;SDS011;53678;39.642;22.430;2023-02-22T08:27:59;29.13;;;18.08;;
65477;SDS011;53678;39.642;22.430;2023-02-22T08:30:27;28.08;;;18.70;;
65477;SDS011;53678;39.642;22.430;2023-02-22T08:32:54;31.85;;;19.30;;
65477;SDS011;53678;39.642;22.430;2023-02-22T08:35:21;29.63;;;19.42;;
65477;SDS011;53678;39.642;22.430;2023-02-22T08:37:50;28.85;;;18.73;;
65477;SDS011;53678;39.642;22.430;2023-02-22T08:40:20;27.48;;;18.20;;
65477;SDS011;53678;39.642;22.430;2023-02-22T08:42:48;27.77;;;17.95;;
65477;SDS011;53678;39.642;22.430;2023-02-22T08:45:15;32.67;;;18.90;;
65477;SDS011;53678;39.642;22.430;2023-02-22T08:47:41;27.00;;;18.30;;
65477;SDS011;53678;39.642;22.430;2023-02-22T08:50:08;27.73;;;18.20;;
65477;SDS011;53678;39.642;22.430;2023-02-22T08:52:42;31.42;;;18.38;;
65477;SDS011;53678;39.642;22.430;2023-02-22T08:55:09;28.10;;;18.02;;
65477;SDS011;53678;39.642;22.430;2023-02-22T08:57:36;30.20;;;17.92;;
65477;SDS011;53678;39.642;22.430;2023-02-22T09:00:02;24.52;;;16.42;;
65477;SDS011;53678;39.642;22.430;2023-02-22T09:02:32;23.05;;;13.95;;
65477;SDS011;53678;39.642;22.430;2023-02-22T09:04:57;21.88;;;13.90;;
65477;SDS011;53678;39.642;22.430;2023-02-22T09:07:26;25.58;;;14.50;;
65477;SDS011;53678;39.642;22.430;2023-02-22T09:09:53;19.80;;;12.48;;
65477;SDS011;53678;39.642;22.430;2023-02-22T09:12:19;25.90;;;12.35;;
65477;SDS011;53678;39.642;22.430;2023-02-22T09:14:47;16.27;;;10.93;;
65477;SDS011;53678;39.642;22.430;2023-02-22T09:17:13;17.85;;;12.13;;
65477;SDS011;53678;39.642;22.430;2023-02-22T09:19:38;18.33;;;11.05;;
65477;SDS011;53678;39.642;22.430;2023-02-22T09:22:04;18.33;;;11.73;;
65477;SDS011;53678;39.642;22.430;2023-02-22T09:24:30;24.25;;;13.52;;
65477;SDS011;53678;39.642;22.430;2023-02-22T09:26:56;21.55;;;13.43;;
65477;SDS011;53678;39.642;22.430;2023-02-22T09:29:24;17.90;;;11.60;;
65477;SDS011;53678;39.642;22.430;2023-02-22T09:31:53;24.17;;;11.82;;
65477;SDS011;53678;39.642;22.430;2023-02-22T09:34:21;35.53;;;12.57;;
65477;SDS011;53678;39.642;22.430;2023-02-22T09:36:54;16.83;;;11.57;;
65477;SDS011;53678;39.642;22.430;2023-02-22T09:39:26;23.92;;;12.95;;
65477;SDS011;53678;39.642;22.430;2023-02-22T09:44:37;18.45;;;12.50;;
65477;SDS011;53678;39.642;22.430;2023-02-22T09:47:18;20.35;;;12.73;;
65477;SDS011;53678;39.642;22.430;2023-02-22T09:49:56;18.75;;;12.07;;
65477;SDS011;53678;39.642;22.430;2023-02-22T09:52:31;16.45;;;11.55;;
65477;SDS011;53678;39.642;22.430;2023-02-22T09:55:08;21.23;;;12.80;;
65477;SDS011;53678;39.642;22.430;2023-02-22T09:57:47;19.88;;;12.43;;
65477;SDS011;53678;39.642;22.430;2023-02-22T10:00:18;21.10;;;11.73;;
65477;SDS011;53678;39.642;22.430;2023-02-22T10:05:35;19.90;;;13.15;;
65477;SDS011;53678;39.642;22.430;2023-02-22T10:08:10;20.93;;;12.73;;
65477;SDS011;53678;39.642;22.430;2023-02-22T10:10:41;19.65;;;12.50;;
65477;SDS011;53678;39.642;22.430;2023-02-22T10:19:01;23.88;;;14.18;;
65477;SDS011;53678;39.642;22.430;2023-02-22T10:22:12;23.75;;;14.07;;
65477;SDS011;53678;39.642;22.430;2023-02-22T10:24:49;18.95;;;11.85;;
65477;SDS011;53678;39.642;22.430;2023-02-22T10:32:58;25.38;;;13.43;;
65477;SDS011;53678;39.642;22.430;2023-02-22T10:35:34;25.65;;;13.18;;
65477;SDS011;53678;39.642;22.430;2023-02-22T10:38:09;17.40;;;12.55;;
65477;SDS011;53678;39.642;22.430;2023-02-22T10:40:45;21.73;;;12.82;;
65477;SDS011;53678;39.642;22.430;2023-02-22T10:43:14;19.65;;;13.18;;
65477;SDS011;53678;39.642;22.430;2023-02-22T10:45:40;18.67;;;12.40;;
65477;SDS011;53678;39.642;22.430;2023-02-22T10:48:08;21.98;;;13.25;;
65477;SDS011;53678;39.642;22.430;2023-02-22T10:50:38;21.08;;;13.55;;
65477;SDS011;53678;39.642;22.430;2023-02-22T10:53:07;19.95;;;13.80;;
65477;SDS011;53678;39.642;22.430;2023-02-22T10:55:33;21.42;;;13.80;;
65477;SDS011;53678;39.642;22.430;2023-02-22T10:58:06;18.83;;;13.27;;
65477;SDS011;53678;39.642;22.430;2023-02-22T11:00:36;21.47;;;13.60;;
65477;SDS011;53678;39.642;22.430;2023-02-22T11:03:16;21.02;;;12.32;;
65477;SDS011;53678;39.642;22.430;2023-02-22T11:05:44;25.95;;;12.93;;
65477;SDS011;53678;39.642;22.430;2023-02-22T11:10:45;19.20;;;11.40;;
65477;SDS011;53678;39.642;22.430;2023-02-22T11:13:16;19.00;;;11.95;;
65477;SDS011;53678;39.642;22.430;2023-02-22T11:15:54;18.35;;;12.35;;
65477;SDS011;53678;39.642;22.430;2023-02-22T11:18:24;28.43;;;12.90;;
65477;SDS011;53678;39.642;22.430;2023-02-22T11:21:07;15.55;;;11.27;;
65477;SDS011;53678;39.642;22.430;2023-02-22T11:23:36;22.33;;;12.27;;
65477;SDS011;53678;39.642;22.430;2023-02-22T11:26:40;20.35;;;12.25;;
65477;SDS011;53678;39.642;22.430;2023-02-22T11:29:19;18.95;;;12.45;;
65477;SDS011;53678;39.642;22.430;2023-02-22T11:31:49;20.33;;;11.82;;
65477;SDS011;53678;39.642;22.430;2023-02-22T11:34:32;24.25;;;14.55;;
65477;SDS011;53678;39.642;22.430;2023-02-22T11:42:40;13.95;;;6.75;;
65477;SDS011;53678;39.642;22.430;2023-02-22T11:45:07;11.27;;;6.47;;
65477;SDS011;53678;39.642;22.430;2023-02-22T11:47:45;9.82;;;5.85;;
65477;SDS011;53678;39.642;22.430;2023-02-22T11:53:17;10.77;;;5.32;;
65477;SDS011;53678;39.642;22.430;2023-02-22T11:55:58;11.02;;;6.40;;
65477;SDS011;53678;39.642;22.430;2023-02-22T12:22:32;7.70;;;5.10;;
65477;SDS011;53678;39.642;22.430;2023-02-22T12:27:52;9.63;;;4.72;;
65477;SDS011;53678;39.642;22.430;2023-02-22T12:30:35;7.40;;;5.00;;
65477;SDS011;53678;39.642;22.430;2023-02-22T12:33:09;7.75;;;5.35;;
65477;SDS011;53678;39.642;22.430;2023-02-22T12:35:41;6.88;;;5.05;;
65477;SDS011;53678;39.642;22.430;2023-02-22T12:41:06;6.97;;;4.78;;
65477;SDS011;53678;39.642;22.430;2023-02-22T12:43:59;32.90;;;6.90;;
65477;SDS011;53678;39.642;22.430;2023-02-22T12:46:36;9.07;;;4.95;;
65477;SDS011;53678;39.642;22.430;2023-02-22T12:49:16;10.25;;;5.50;;
65477;SDS011;53678;39.642;22.430;2023-02-22T12:51:56;14.73;;;5.35;;
65477;SDS011;53678;39.642;22.430;2023-02-22T12:59:39;6.85;;;4.70;;
65477;SDS011;53678;39.642;22.430;2023-02-22T13:02:17;10.95;;;6.35;;
65477;SDS011;53678;39.642;22.430;2023-02-22T13:04:51;10.38;;;5.35;;
65477;SDS011;53678;39.642;22.430;2023-02-22T13:07:20;7.70;;;4.95;;
65477;SDS011;53678;39.642;22.430;2023-02-22T13:12:45;11.43;;;4.75;;
65477;SDS011;53678;39.642;22.430;2023-02-22T13:20:47;21.08;;;13.15;;
65477;SDS011;53678;39.642;22.430;2023-02-22T13:47:46;11.18;;;5.45;;
65477;SDS011;53678;39.642;22.430;2023-02-22T13:53:27;8.07;;;5.10;;
65477;SDS011;53678;39.642;22.430;2023-02-22T13:55:57;9.65;;;5.93;;
65477;SDS011;53678;39.642;22.430;2023-02-22T13:58:27;8.35;;;6.07;;
65477;SDS011;53678;39.642;22.430;2023-02-22T14:00:54;9.30;;;5.50;;
65477;SDS011;53678;39.642;22.430;2023-02-22T14:06:02;11.25;;;5.15;;
65477;SDS011;53678;39.642;22.430;2023-02-22T14:10:59;10.18;;;4.82;;
65477;SDS011;53678;39.642;22.430;2023-02-22T14:13:27;6.82;;;4.20;;
65477;SDS011;53678;39.642;22.430;2023-02-22T14:18:40;6.88;;;4.47;;
65477;SDS011;53678;39.642;22.430;2023-02-22T14:21:11;6.65;;;4.78;;
65477;SDS011;53678;39.642;22.430;2023-02-22T14:28:57;6.47;;;4.10;;
65477;SDS011;53678;39.642;22.430;2023-02-22T14:36:55;6.18;;;4.28;;
65477;SDS011;53678;39.642;22.430;2023-02-22T14:39:35;8.25;;;4.78;;
65477;SDS011;53678;39.642;22.430;2023-02-22T14:50:46;9.52;;;4.70;;
65477;SDS011;53678;39.642;22.430;2023-02-22T14:53:22;10.38;;;4.93;;
65477;SDS011;53678;39.642;22.430;2023-02-22T14:55:57;7.68;;;4.20;;
65477;SDS011;53678;39.642;22.430;2023-02-22T14:58:31;7.65;;;4.65;;
65477;SDS011;53678;39.642;22.430;2023-02-22T15:04:21;11.10;;;4.35;;
65477;SDS011;53678;39.642;22.430;2023-02-22T15:06:53;11.95;;;5.90;;
65477;SDS011;53678;39.642;22.430;2023-02-22T15:09:22;9.68;;;5.20;;
65477;SDS011;53678;39.642;22.430;2023-02-22T15:14:30;11.55;;;5.00;;
65477;SDS011;53678;39.642;22.430;2023-02-22T15:19:43;9.35;;;5.18;;
65477;SDS011;53678;39.642;22.430;2023-02-22T15:22:45;7.45;;;4.30;;
65477;SDS011;53678;39.642;22.430;2023-02-22T15:25:05;7.00;;;3.70;;
65477;SDS011;53678;39.642;22.430;2023-02-22T15:27:32;5.63;;;3.80;;
65477;SDS011;53678;39.642;22.430;2023-02-22T15:30:05;8.40;;;4.07;;
65477;SDS011;53678;39.642;22.430;2023-02-22T15:32:34;8.67;;;4.80;;
65477;SDS011;53678;39.642;22.430;2023-02-22T15:38:01;7.57;;;4.43;;
65477;SDS011;53678;39.642;22.430;2023-02-22T15:40:32;7.53;;;4.15;;
65477;SDS011;53678;39.642;22.430;2023-02-22T15:43:02;8.75;;;4.88;;
65477;SDS011;53678;39.642;22.430;2023-02-22T15:45:34;11.13;;;5.90;;
65477;SDS011;53678;39.642;22.430;2023-02-22T15:48:07;9.82;;;5.78;;
65477;SDS011;53678;39.642;22.430;2023-02-22T15:50:34;14.70;;;5.95;;
65477;SDS011;53678;39.642;22.430;2023-02-22T15:53:34;8.73;;;5.25;;
65477;SDS011;53678;39.642;22.430;2023-02-22T15:55:57;8.35;;;4.30;;
65477;SDS011;53678;39.642;22.430;2023-02-22T15:58:27;6.90;;;4.43;;
65477;SDS011;53678;39.642;22.430;2023-02-22T16:01:00;6.35;;;4.40;;
65477;SDS011;53678;39.642;22.430;2023-02-22T16:03:39;6.10;;;4.18;;
65477;SDS011;53678;39.642;22.430;2023-02-22T16:06:14;7.68;;;4.20;;
65477;SDS011;53678;39.642;22.430;2023-02-22T16:08:55;8.20;;;4.13;;
65477;SDS011;53678;39.642;22.430;2023-02-22T16:11:25;8.85;;;5.10;;
65477;SDS011;53678;39.642;22.430;2023-02-22T16:13:59;9.02;;;4.47;;
65477;SDS011;53678;39.642;22.430;2023-02-22T16:16:32;9.88;;;5.68;;
65477;SDS011;53678;39.642;22.430;2023-02-22T16:21:56;9.73;;;5.25;;
65477;SDS011;53678;39.642;22.430;2023-02-22T16:24:32;6.82;;;4.82;;
65477;SDS011;53678;39.642;22.430;2023-02-22T16:27:21;9.98;;;5.05;;
65477;SDS011;53678;39.642;22.430;2023-02-22T16:30:55;9.90;;;5.10;;
65477;SDS011;53678;39.642;22.430;2023-02-22T16:32:56;10.07;;;5.03;;
65477;SDS011;53678;39.642;22.430;2023-02-22T16:35:26;9.63;;;4.90;;
65477;SDS011;53678;39.642;22.430;2023-02-22T16:38:01;9.77;;;5.10;;
65477;SDS011;53678;39.642;22.430;2023-02-22T16:40:30;10.30;;;5.70;;
65477;SDS011;53678;39.642;22.430;2023-02-22T16:43:06;9.75;;;5.90;;
65477;SDS011;53678;39.642;22.430;2023-02-22T16:45:36;10.55;;;5.50;;
65477;SDS011;53678;39.642;22.430;2023-02-22T16:50:59;10.90;;;6.03;;
65477;SDS011;53678;39.642;22.430;2023-02-22T16:53:30;10.18;;;6.32;;
65477;SDS011;53678;39.642;22.430;2023-02-22T16:56:02;10.70;;;5.90;;
65477;SDS011;53678;39.642;22.430;2023-02-22T16:58:33;11.77;;;6.85;;
65477;SDS011;53678;39.642;22.430;2023-02-22T17:01:18;12.18;;;7.35;;
65477;SDS011;53678;39.642;22.430;2023-02-22T17:03:45;13.48;;;7.10;;
65477;SDS011;53678;39.642;22.430;2023-02-22T17:06:12;11.93;;;6.95;;
65477;SDS011;53678;39.642;22.430;2023-02-22T17:08:39;9.57;;;5.88;;
65477;SDS011;53678;39.642;22.430;2023-02-22T17:11:05;11.27;;;7.03;;
65477;SDS011;53678;39.642;22.430;2023-02-22T17:13:32;11.48;;;6.20;;
65477;SDS011;53678;39.642;22.430;2023-02-22T17:16:00;12.32;;;6.47;;
65477;SDS011;53678;39.642;22.430;2023-02-22T17:18:26;12.35;;;6.32;;
65477;SDS011;53678;39.642;22.430;2023-02-22T17:20:58;11.00;;;6.28;;
65477;SDS011;53678;39.642;22.430;2023-02-22T17:23:25;10.68;;;6.25;;
65477;SDS011;53678;39.642;22.430;2023-02-22T17:25:56;10.82;;;6.57;;
65477;SDS011;53678;39.642;22.430;2023-02-22T17:28:24;17.67;;;8.00;;